sensor_id;sensor_type;location;lat;lon;timestamp;temperature;humidity
38973;DHT22;25333;50.762;4.470;2023-02-23T00:00:09;8.70;99.90
38973;DHT22;25333;50.762;4.470;2023-02-23T00:02:47;8.70;99.90
38973;DHT22;25333;50.762;4.470;2023-02-23T00:05:13;8.60;99.90
38973;DHT22;25333;50.762;4.470;2023-02-23T00:07:41;8.60;99.90
38973;DHT22;25333;50.762;4.470;2023-02-23T00:10:12;8.70;99.90
38973;DHT22;25333;50.762;4.470;2023-02-23T00:12:42;8.80;99.90
38973;DHT22;25333;50.762;4.470;2023-02-23T00:15:09;8.80;99.90
38973;DHT22;25333;50.762;4.470;2023-02-23T00:17:35;8.80;99.90
38973;DHT22;25333;50.762;4.470;2023-02-23T00:20:05;8.80;99.90
38973;DHT22;25333;50.762;4.470;2023-02-23T00:22:39;8.90;99.90
38973;DHT22;25333;50.762;4.470;2023-02-23T00:25:07;8.90;99.90
38973;DHT22;25333;50.762;4.470;2023-02-23T00:27:34;9.00;99.90
38973;DHT22;25333;50.762;4.470;2023-02-23T00:29:59;9.00;99.90
38973;DHT22;25333;50.762;4.470;2023-02-23T00:32:25;8.90;99.90
38973;DHT22;25333;50.762;4.470;2023-02-23T00:34:51;8.90;99.90
38973;DHT22;25333;50.762;4.470;2023-02-23T00:37:18;8.90;99.90
38973;DHT22;25333;50.762;4.470;2023-02-23T00:39:43;8.90;99.90
38973;DHT22;25333;50.762;4.470;2023-02-23T00:42:10;8.90;99.90
38973;DHT22;25333;50.762;4.470;2023-02-23T00:44:38;8.90;99.90
38973;DHT22;25333;50.762;4.470;2023-02-23T00:47:05;9.00;99.90
38973;DHT22;25333;50.762;4.470;2023-02-23T00:49:31;9.00;99.90
38973;DHT22;25333;50.762;4.470;2023-02-23T00:51:57;9.00;99.90
38973;DHT22;25333;50.762;4.470;2023-02-23T00:54:22;9.10;99.90
38973;DHT22;25333;50.762;4.470;2023-02-23T00:56:49;9.10;99.90
38973;DHT22;25333;50.762;4.470;2023-02-23T00:59:15;9.00;99.90
38973;DHT22;25333;50.762;4.470;2023-02-23T01:01:41;9.00;99.90
38973;DHT22;25333;50.762;4.470;2023-02-23T01:04:08;8.90;99.90
38973;DHT22;25333;50.762;4.470;2023-02-23T01:06:35;8.90;99.90
38973;DHT22;25333;50.762;4.470;2023-02-23T01:09:10;8.90;99.90
38973;DHT22;25333;50.762;4.470;2023-02-23T01:11:37;8.90;99.90
38973;DHT22;25333;50.762;4.470;2023-02-23T01:14:05;8.90;99.90
38973;DHT22;25333;50.762;4.470;2023-02-23T01:16:33;8.80;99.90
38973;DHT22;25333;50.762;4.470;2023-02-23T01:19:01;8.70;99.90
38973;DHT22;25333;50.762;4.470;2023-02-23T01:21:36;8.70;99.90
38973;DHT22;25333;50.762;4.470;2023-02-23T01:24:02;8.70;99.90
38973;DHT22;25333;50.762;4.470;2023-02-23T01:26:30;8.70;99.90
38973;DHT22;25333;50.762;4.470;2023-02-23T01:29:02;8.70;99.90
38973;DHT22;25333;50.762;4.470;2023-02-23T01:31:29;8.70;99.90
38973;DHT22;25333;50.762;4.470;2023-02-23T01:33:59;8.70;99.90
38973;DHT22;25333;50.762;4.470;2023-02-23T01:36:26;8.70;99.90
38973;DHT22;25333;50.762;4.470;2023-02-23T01:38:54;8.70;99.90
38973;DHT22;25333;50.762;4.470;2023-02-23T01:41:26;8.70;99.90
38973;DHT22;25333;50.762;4.470;2023-02-23T01:46:45;8.60;99.90
38973;DHT22;25333;50.762;4.470;2023-02-23T01:49:17;8.60;99.90
38973;DHT22;25333;50.762;4.470;2023-02-23T01:52:08;8.60;99.90
38973;DHT22;25333;50.762;4.470;2023-02-23T01:54:50;8.70;99.90
38973;DHT22;25333;50.762;4.470;2023-02-23T01:57:19;8.70;99.90
38973;DHT22;25333;50.762;4.470;2023-02-23T01:59:48;8.70;99.90
38973;DHT22;25333;50.762;4.470;2023-02-23T02:02:19;8.70;99.90
38973;DHT22;25333;50.762;4.470;2023-02-23T02:04:46;8.70;99.90
38973;DHT22;25333;50.762;4.470;2023-02-23T02:07:22;8.80;99.90
38973;DHT22;25333;50.762;4.470;2023-02-23T02:09:51;8.90;99.90
38973;DHT22;25333;50.762;4.470;2023-02-23T02:12:50;8.80;99.90
38973;DHT22;25333;50.762;4.470;2023-02-23T02:15:17;8.90;99.90
38973;DHT22;25333;50.762;4.470;2023-02-23T02:37:42;8.90;99.90
38973;DHT22;25333;50.762;4.470;2023-02-23T02:43:07;8.90;99.90
38973;DHT22;25333;50.762;4.470;2023-02-23T02:51:34;8.90;99.90
38973;DHT22;25333;50.762;4.470;2023-02-23T02:56:53;9.00;99.90
38973;DHT22;25333;50.762;4.470;2023-02-23T02:59:22;9.00;99.90
38973;DHT22;25333;50.762;4.470;2023-02-23T03:02:14;9.00;99.90
38973;DHT22;25333;50.762;4.470;2023-02-23T03:04:59;9.00;99.90
38973;DHT22;25333;50.762;4.470;2023-02-23T03:10:59;9.00;99.90
38973;DHT22;25333;50.762;4.470;2023-02-23T03:13:58;9.00;99.90
38973;DHT22;25333;50.762;4.470;2023-02-23T03:20:27;9.10;99.90
38973;DHT22;25333;50.762;4.470;2023-02-23T03:26:38;9.10;99.90
38973;DHT22;25333;50.762;4.470;2023-02-23T03:32:36;9.20;99.90
38973;DHT22;25333;50.762;4.470;2023-02-23T03:35:29;9.20;99.90
38973;DHT22;25333;50.762;4.470;2023-02-23T03:39:34;9.20;99.90
38973;DHT22;25333;50.762;4.470;2023-02-23T03:41:46;9.10;99.90
38973;DHT22;25333;50.762;4.470;2023-02-23T03:44:36;9.10;99.90
38973;DHT22;25333;50.762;4.470;2023-02-23T03:47:26;9.10;99.90
38973;DHT22;25333;50.762;4.470;2023-02-23T03:50:21;9.10;99.90
38973;DHT22;25333;50.762;4.470;2023-02-23T03:53:09;9.20;99.90
38973;DHT22;25333;50.762;4.470;2023-02-23T03:55:55;9.20;99.90
38973;DHT22;25333;50.762;4.470;2023-02-23T03:58:45;9.20;99.90
38973;DHT22;25333;50.762;4.470;2023-02-23T04:01:31;9.10;99.90
38973;DHT22;25333;50.762;4.470;2023-02-23T04:04:17;9.00;99.90
38973;DHT22;25333;50.762;4.470;2023-02-23T04:07:02;9.00;99.90
38973;DHT22;25333;50.762;4.470;2023-02-23T04:09:47;8.90;99.90
38973;DHT22;25333;50.762;4.470;2023-02-23T04:15:33;9.00;99.90
38973;DHT22;25333;50.762;4.470;2023-02-23T04:18:03;9.10;99.90
38973;DHT22;25333;50.762;4.470;2023-02-23T04:20:28;9.10;99.90
38973;DHT22;25333;50.762;4.470;2023-02-23T04:22:54;9.10;99.90
38973;DHT22;25333;50.762;4.470;2023-02-23T04:25:20;9.10;99.90
38973;DHT22;25333;50.762;4.470;2023-02-23T04:27:49;9.10;99.90
38973;DHT22;25333;50.762;4.470;2023-02-23T04:30:15;9.10;99.90
38973;DHT22;25333;50.762;4.470;2023-02-23T04:32:41;9.10;99.90
38973;DHT22;25333;50.762;4.470;2023-02-23T04:35:08;9.10;99.90
38973;DHT22;25333;50.762;4.470;2023-02-23T04:37:34;9.00;99.90
38973;DHT22;25333;50.762;4.470;2023-02-23T04:40:00;9.00;99.90
38973;DHT22;25333;50.762;4.470;2023-02-23T04:42:25;9.10;99.90
38973;DHT22;25333;50.762;4.470;2023-02-23T04:44:51;9.10;99.90
38973;DHT22;25333;50.762;4.470;2023-02-23T04:47:17;9.10;99.90
38973;DHT22;25333;50.762;4.470;2023-02-23T04:49:43;9.00;99.90
38973;DHT22;25333;50.762;4.470;2023-02-23T04:52:08;9.00;99.90
38973;DHT22;25333;50.762;4.470;2023-02-23T04:54:38;8.90;99.90
38973;DHT22;25333;50.762;4.470;2023-02-23T04:57:03;9.00;99.90
38973;DHT22;25333;50.762;4.470;2023-02-23T04:59:29;8.90;99.90
38973;DHT22;25333;50.762;4.470;2023-02-23T05:01:55;9.00;99.90
38973;DHT22;25333;50.762;4.470;2023-02-23T05:04:21;9.00;99.90
38973;DHT22;25333;50.762;4.470;2023-02-23T05:06:47;9.10;99.90
38973;DHT22;25333;50.762;4.470;2023-02-23T05:09:13;9.10;99.90
38973;DHT22;25333;50.762;4.470;2023-02-23T05:11:38;9.10;99.90
38973;DHT22;25333;50.762;4.470;2023-02-23T05:14:04;9.10;99.90
38973;DHT22;25333;50.762;4.470;2023-02-23T05:16:30;9.10;99.90
38973;DHT22;25333;50.762;4.470;2023-02-23T05:18:55;9.10;99.90
38973;DHT22;25333;50.762;4.470;2023-02-23T05:21:21;9.10;99.90
38973;DHT22;25333;50.762;4.470;2023-02-23T05:23:47;9.10;99.90
38973;DHT22;25333;50.762;4.470;2023-02-23T05:26:13;9.20;99.90
38973;DHT22;25333;50.762;4.470;2023-02-23T05:28:40;9.10;99.90
38973;DHT22;25333;50.762;4.470;2023-02-23T05:31:06;9.20;99.90
38973;DHT22;25333;50.762;4.470;2023-02-23T05:33:33;9.20;99.90
38973;DHT22;25333;50.762;4.470;2023-02-23T05:36:04;9.10;99.90
38973;DHT22;25333;50.762;4.470;2023-02-23T05:38:29;9.00;99.90
38973;DHT22;25333;50.762;4.470;2023-02-23T05:40:55;9.00;99.90
38973;DHT22;25333;50.762;4.470;2023-02-23T05:43:21;9.00;99.90
38973;DHT22;25333;50.762;4.470;2023-02-23T05:45:46;9.00;99.90
38973;DHT22;25333;50.762;4.470;2023-02-23T05:48:12;9.00;99.90
38973;DHT22;25333;50.762;4.470;2023-02-23T05:50:38;8.90;99.90
38973;DHT22;25333;50.762;4.470;2023-02-23T05:53:04;8.90;99.90
38973;DHT22;25333;50.762;4.470;2023-02-23T05:55:29;9.00;99.90
38973;DHT22;25333;50.762;4.470;2023-02-23T05:57:55;9.00;99.90
38973;DHT22;25333;50.762;4.470;2023-02-23T06:00:23;9.00;99.90
38973;DHT22;25333;50.762;4.470;2023-02-23T06:02:48;9.10;99.90
38973;DHT22;25333;50.762;4.470;2023-02-23T06:05:18;9.10;99.90
38973;DHT22;25333;50.762;4.470;2023-02-23T06:07:43;9.10;99.90
38973;DHT22;25333;50.762;4.470;2023-02-23T06:10:10;9.10;99.90
38973;DHT22;25333;50.762;4.470;2023-02-23T06:12:35;9.10;99.90
38973;DHT22;25333;50.762;4.470;2023-02-23T06:15:01;9.10;99.90
38973;DHT22;25333;50.762;4.470;2023-02-23T06:17:27;9.10;99.90
38973;DHT22;25333;50.762;4.470;2023-02-23T06:19:52;9.00;99.90
38973;DHT22;25333;50.762;4.470;2023-02-23T06:22:18;8.90;99.90
38973;DHT22;25333;50.762;4.470;2023-02-23T06:24:44;8.90;99.90
38973;DHT22;25333;50.762;4.470;2023-02-23T06:27:09;9.00;99.90
38973;DHT22;25333;50.762;4.470;2023-02-23T06:29:36;9.00;99.90
38973;DHT22;25333;50.762;4.470;2023-02-23T06:32:03;9.00;99.90
38973;DHT22;25333;50.762;4.470;2023-02-23T06:34:28;8.90;99.90
38973;DHT22;25333;50.762;4.470;2023-02-23T06:36:54;8.90;99.90
38973;DHT22;25333;50.762;4.470;2023-02-23T06:39:20;8.90;99.90
38973;DHT22;25333;50.762;4.470;2023-02-23T06:41:46;8.90;99.90
38973;DHT22;25333;50.762;4.470;2023-02-23T06:44:11;8.90;99.90
38973;DHT22;25333;50.762;4.470;2023-02-23T06:46:37;8.90;99.90
38973;DHT22;25333;50.762;4.470;2023-02-23T06:49:03;8.90;99.90
38973;DHT22;25333;50.762;4.470;2023-02-23T06:51:29;8.90;99.90
38973;DHT22;25333;50.762;4.470;2023-02-23T06:53:54;8.90;99.90
38973;DHT22;25333;50.762;4.470;2023-02-23T06:56:20;9.00;99.90
38973;DHT22;25333;50.762;4.470;2023-02-23T06:58:46;8.90;99.90
38973;DHT22;25333;50.762;4.470;2023-02-23T07:01:12;8.90;99.90
38973;DHT22;25333;50.762;4.470;2023-02-23T07:03:38;8.90;99.90
38973;DHT22;25333;50.762;4.470;2023-02-23T07:06:04;8.90;99.90
38973;DHT22;25333;50.762;4.470;2023-02-23T07:08:31;8.80;99.90
38973;DHT22;25333;50.762;4.470;2023-02-23T07:11:04;8.80;99.90
38973;DHT22;25333;50.762;4.470;2023-02-23T07:13:31;8.80;99.90
38973;DHT22;25333;50.762;4.470;2023-02-23T07:15:56;8.80;99.90
38973;DHT22;25333;50.762;4.470;2023-02-23T07:18:22;8.90;99.90
38973;DHT22;25333;50.762;4.470;2023-02-23T07:20:49;8.90;99.90
38973;DHT22;25333;50.762;4.470;2023-02-23T07:23:16;8.90;99.90
38973;DHT22;25333;50.762;4.470;2023-02-23T07:25:42;8.90;99.90
38973;DHT22;25333;50.762;4.470;2023-02-23T07:28:07;8.90;99.90
38973;DHT22;25333;50.762;4.470;2023-02-23T07:30:33;8.80;99.90
38973;DHT22;25333;50.762;4.470;2023-02-23T07:32:58;8.80;99.90
38973;DHT22;25333;50.762;4.470;2023-02-23T07:35:24;8.90;99.90
38973;DHT22;25333;50.762;4.470;2023-02-23T07:37:50;8.90;99.90
38973;DHT22;25333;50.762;4.470;2023-02-23T07:40:16;8.90;99.90
38973;DHT22;25333;50.762;4.470;2023-02-23T07:42:41;8.90;99.90
38973;DHT22;25333;50.762;4.470;2023-02-23T07:45:09;8.80;99.90
38973;DHT22;25333;50.762;4.470;2023-02-23T07:47:34;8.80;99.90
38973;DHT22;25333;50.762;4.470;2023-02-23T07:50:02;8.90;99.90
38973;DHT22;25333;50.762;4.470;2023-02-23T07:52:32;8.90;99.90
38973;DHT22;25333;50.762;4.470;2023-02-23T07:54:58;8.80;99.90
38973;DHT22;25333;50.762;4.470;2023-02-23T07:57:23;8.80;99.90
38973;DHT22;25333;50.762;4.470;2023-02-23T07:59:49;8.80;99.90
38973;DHT22;25333;50.762;4.470;2023-02-23T08:02:15;8.80;99.90
38973;DHT22;25333;50.762;4.470;2023-02-23T08:04:41;8.90;99.90
38973;DHT22;25333;50.762;4.470;2023-02-23T08:07:08;8.90;99.90
38973;DHT22;25333;50.762;4.470;2023-02-23T08:09:33;9.00;99.90
38973;DHT22;25333;50.762;4.470;2023-02-23T08:12:00;8.90;99.90
38973;DHT22;25333;50.762;4.470;2023-02-23T08:14:26;9.00;99.90
38973;DHT22;25333;50.762;4.470;2023-02-23T08:16:52;9.00;99.90
38973;DHT22;25333;50.762;4.470;2023-02-23T08:19:18;9.00;99.90
38973;DHT22;25333;50.762;4.470;2023-02-23T08:21:50;9.10;99.90
38973;DHT22;25333;50.762;4.470;2023-02-23T08:24:16;9.10;99.90
38973;DHT22;25333;50.762;4.470;2023-02-23T08:26:42;9.10;99.90
38973;DHT22;25333;50.762;4.470;2023-02-23T08:29:08;9.20;99.90
38973;DHT22;25333;50.762;4.470;2023-02-23T08:31:34;9.20;99.90
38973;DHT22;25333;50.762;4.470;2023-02-23T08:34:00;9.20;99.90
38973;DHT22;25333;50.762;4.470;2023-02-23T08:36:26;9.30;99.90
38973;DHT22;25333;50.762;4.470;2023-02-23T08:38:52;9.30;99.90
38973;DHT22;25333;50.762;4.470;2023-02-23T08:41:21;9.30;99.90
38973;DHT22;25333;50.762;4.470;2023-02-23T08:43:46;9.40;99.90
38973;DHT22;25333;50.762;4.470;2023-02-23T08:46:13;9.40;99.90
38973;DHT22;25333;50.762;4.470;2023-02-23T08:48:41;9.30;99.90
38973;DHT22;25333;50.762;4.470;2023-02-23T08:51:07;9.20;99.90
38973;DHT22;25333;50.762;4.470;2023-02-23T08:53:33;9.20;99.90
38973;DHT22;25333;50.762;4.470;2023-02-23T08:56:00;9.10;99.90
38973;DHT22;25333;50.762;4.470;2023-02-23T08:58:28;9.20;99.90
38973;DHT22;25333;50.762;4.470;2023-02-23T09:00:55;9.20;99.90
38973;DHT22;25333;50.762;4.470;2023-02-23T09:03:21;9.20;99.90
38973;DHT22;25333;50.762;4.470;2023-02-23T09:08:13;9.20;99.90
38973;DHT22;25333;50.762;4.470;2023-02-23T09:10:39;9.20;99.90
38973;DHT22;25333;50.762;4.470;2023-02-23T09:13:05;9.20;99.90
38973;DHT22;25333;50.762;4.470;2023-02-23T09:15:31;9.30;99.90
38973;DHT22;25333;50.762;4.470;2023-02-23T09:18:00;9.30;99.90
38973;DHT22;25333;50.762;4.470;2023-02-23T09:20:26;9.30;99.90
38973;DHT22;25333;50.762;4.470;2023-02-23T09:22:52;9.30;99.90
38973;DHT22;25333;50.762;4.470;2023-02-23T09:25:19;9.30;99.90
38973;DHT22;25333;50.762;4.470;2023-02-23T09:27:51;9.30;99.90
38973;DHT22;25333;50.762;4.470;2023-02-23T09:30:19;9.40;99.90
38973;DHT22;25333;50.762;4.470;2023-02-23T09:32:49;9.50;99.90
38973;DHT22;25333;50.762;4.470;2023-02-23T09:35:16;9.50;99.90
38973;DHT22;25333;50.762;4.470;2023-02-23T09:37:53;9.50;99.90
38973;DHT22;25333;50.762;4.470;2023-02-23T09:40:21;9.40;99.90
38973;DHT22;25333;50.762;4.470;2023-02-23T09:43:00;9.40;99.90
38973;DHT22;25333;50.762;4.470;2023-02-23T09:45:44;9.40;99.90
38973;DHT22;25333;50.762;4.470;2023-02-23T09:48:15;9.30;99.90
38973;DHT22;25333;50.762;4.470;2023-02-23T09:50:53;9.30;99.90
38973;DHT22;25333;50.762;4.470;2023-02-23T09:53:55;9.40;99.90
38973;DHT22;25333;50.762;4.470;2023-02-23T09:58:50;9.40;99.90
38973;DHT22;25333;50.762;4.470;2023-02-23T10:07:11;9.40;99.90
38973;DHT22;25333;50.762;4.470;2023-02-23T10:15:45;9.50;99.90
38973;DHT22;25333;50.762;4.470;2023-02-23T10:24:26;9.40;99.90
38973;DHT22;25333;50.762;4.470;2023-02-23T10:26:53;9.50;99.90
38973;DHT22;25333;50.762;4.470;2023-02-23T10:29:34;9.70;99.90
38973;DHT22;25333;50.762;4.470;2023-02-23T10:32:05;9.70;99.90
38973;DHT22;25333;50.762;4.470;2023-02-23T10:34:32;9.50;99.90
38973;DHT22;25333;50.762;4.470;2023-02-23T10:37:00;9.50;99.90
38973;DHT22;25333;50.762;4.470;2023-02-23T10:39:29;9.60;99.90
38973;DHT22;25333;50.762;4.470;2023-02-23T10:41:58;9.60;99.90
38973;DHT22;25333;50.762;4.470;2023-02-23T10:44:26;9.50;99.90
38973;DHT22;25333;50.762;4.470;2023-02-23T10:46:57;9.50;99.90
38973;DHT22;25333;50.762;4.470;2023-02-23T10:49:28;9.50;99.90
38973;DHT22;25333;50.762;4.470;2023-02-23T10:51:57;9.60;99.90
38973;DHT22;25333;50.762;4.470;2023-02-23T10:54:43;9.70;99.90
38973;DHT22;25333;50.762;4.470;2023-02-23T10:57:28;9.80;99.90
38973;DHT22;25333;50.762;4.470;2023-02-23T11:02:28;9.90;99.90
38973;DHT22;25333;50.762;4.470;2023-02-23T11:04:57;9.80;99.90
38973;DHT22;25333;50.762;4.470;2023-02-23T11:07:26;9.80;99.90
38973;DHT22;25333;50.762;4.470;2023-02-23T11:09:55;9.80;99.90
38973;DHT22;25333;50.762;4.470;2023-02-23T11:12:24;9.90;99.90
38973;DHT22;25333;50.762;4.470;2023-02-23T11:14:55;9.90;99.90
38973;DHT22;25333;50.762;4.470;2023-02-23T11:17:36;10.00;99.90
38973;DHT22;25333;50.762;4.470;2023-02-23T11:20:23;10.10;99.90
38973;DHT22;25333;50.762;4.470;2023-02-23T11:22:50;10.10;99.90
38973;DHT22;25333;50.762;4.470;2023-02-23T11:25:24;10.00;99.90
38973;DHT22;25333;50.762;4.470;2023-02-23T11:27:52;10.10;99.90
38973;DHT22;25333;50.762;4.470;2023-02-23T11:30:23;10.10;99.90
38973;DHT22;25333;50.762;4.470;2023-02-23T11:32:55;10.10;99.90
38973;DHT22;25333;50.762;4.470;2023-02-23T11:37:47;10.10;99.90
38973;DHT22;25333;50.762;4.470;2023-02-23T11:40:23;10.10;99.90
38973;DHT22;25333;50.762;4.470;2023-02-23T11:45:26;10.20;99.90
38973;DHT22;25333;50.762;4.470;2023-02-23T11:47:55;10.30;99.90
38973;DHT22;25333;50.762;4.470;2023-02-23T11:50:28;10.20;99.90
38973;DHT22;25333;50.762;4.470;2023-02-23T11:53:05;10.30;99.90
38973;DHT22;25333;50.762;4.470;2023-02-23T11:55:32;10.20;99.90
38973;DHT22;25333;50.762;4.470;2023-02-23T12:01:02;10.30;99.90
38973;DHT22;25333;50.762;4.470;2023-02-23T12:03:31;10.20;99.90
38973;DHT22;25333;50.762;4.470;2023-02-23T12:05:57;10.20;99.90
38973;DHT22;25333;50.762;4.470;2023-02-23T12:08:36;10.20;99.90
38973;DHT22;25333;50.762;4.470;2023-02-23T12:11:09;10.20;99.90
38973;DHT22;25333;50.762;4.470;2023-02-23T12:13:44;10.20;99.90
38973;DHT22;25333;50.762;4.470;2023-02-23T12:16:28;10.10;99.90
38973;DHT22;25333;50.762;4.470;2023-02-23T12:19:24;10.10;99.90
38973;DHT22;25333;50.762;4.470;2023-02-23T12:22:04;10.10;99.90
38973;DHT22;25333;50.762;4.470;2023-02-23T12:27:21;10.10;99.90
38973;DHT22;25333;50.762;4.470;2023-02-23T12:32:24;10.10;99.90
38973;DHT22;25333;50.762;4.470;2023-02-23T12:35:07;10.20;99.90
38973;DHT22;25333;50.762;4.470;2023-02-23T12:37:46;10.10;99.90
38973;DHT22;25333;50.762;4.470;2023-02-23T12:40:21;10.20;99.90
38973;DHT22;25333;50.762;4.470;2023-02-23T12:43:15;10.20;99.90
38973;DHT22;25333;50.762;4.470;2023-02-23T12:48:42;10.20;99.90
38973;DHT22;25333;50.762;4.470;2023-02-23T12:51:35;10.20;99.90
38973;DHT22;25333;50.762;4.470;2023-02-23T12:54:03;10.20;99.90
38973;DHT22;25333;50.762;4.470;2023-02-23T13:07:35;10.40;99.90
38973;DHT22;25333;50.762;4.470;2023-02-23T13:10:34;10.30;99.90
38973;DHT22;25333;50.762;4.470;2023-02-23T13:13:16;10.30;99.90
38973;DHT22;25333;50.762;4.470;2023-02-23T13:16:03;10.20;99.90
38973;DHT22;25333;50.762;4.470;2023-02-23T13:18:58;10.20;99.90
38973;DHT22;25333;50.762;4.470;2023-02-23T13:21:34;10.10;99.90
38973;DHT22;25333;50.762;4.470;2023-02-23T13:24:23;10.10;99.90
38973;DHT22;25333;50.762;4.470;2023-02-23T13:27:09;10.20;99.90
38973;DHT22;25333;50.762;4.470;2023-02-23T13:29:41;10.10;99.90
38973;DHT22;25333;50.762;4.470;2023-02-23T13:32:12;10.20;99.90
38973;DHT22;25333;50.762;4.470;2023-02-23T13:34:43;10.30;99.90
38973;DHT22;25333;50.762;4.470;2023-02-23T13:37:12;10.30;99.90
38973;DHT22;25333;50.762;4.470;2023-02-23T13:42:44;10.20;99.90
38973;DHT22;25333;50.762;4.470;2023-02-23T13:56:48;10.50;99.90
38973;DHT22;25333;50.762;4.470;2023-02-23T13:59:23;10.50;99.90
38973;DHT22;25333;50.762;4.470;2023-02-23T14:01:51;10.40;99.90
38973;DHT22;25333;50.762;4.470;2023-02-23T14:04:38;10.40;99.90
38973;DHT22;25333;50.762;4.470;2023-02-23T14:09:39;10.40;99.90
38973;DHT22;25333;50.762;4.470;2023-02-23T14:20:11;10.20;99.90
38973;DHT22;25333;50.762;4.470;2023-02-23T14:25:44;10.00;99.90
38973;DHT22;25333;50.762;4.470;2023-02-23T14:38:50;9.90;99.90
38973;DHT22;25333;50.762;4.470;2023-02-23T14:41:25;9.90;99.90
38973;DHT22;25333;50.762;4.470;2023-02-23T14:44:13;9.90;99.90
38973;DHT22;25333;50.762;4.470;2023-02-23T14:49:24;9.90;99.90
38973;DHT22;25333;50.762;4.470;2023-02-23T14:51:51;9.90;99.90
38973;DHT22;25333;50.762;4.470;2023-02-23T14:54:37;9.80;99.90
38973;DHT22;25333;50.762;4.470;2023-02-23T14:57:05;9.80;99.90
38973;DHT22;25333;50.762;4.470;2023-02-23T14:59:42;9.70;99.90
38973;DHT22;25333;50.762;4.470;2023-02-23T15:02:11;9.70;99.90
38973;DHT22;25333;50.762;4.470;2023-02-23T15:04:40;9.80;99.90
38973;DHT22;25333;50.762;4.470;2023-02-23T15:07:14;9.90;99.90
38973;DHT22;25333;50.762;4.470;2023-02-23T15:09:44;9.80;99.90
38973;DHT22;25333;50.762;4.470;2023-02-23T15:12:17;9.90;99.90
38973;DHT22;25333;50.762;4.470;2023-02-23T15:14:45;9.90;99.90
38973;DHT22;25333;50.762;4.470;2023-02-23T15:17:17;10.00;99.90
38973;DHT22;25333;50.762;4.470;2023-02-23T15:19:44;10.20;99.90
38973;DHT22;25333;50.762;4.470;2023-02-23T15:22:38;10.20;99.90
38973;DHT22;25333;50.762;4.470;2023-02-23T15:25:15;10.00;99.90
38973;DHT22;25333;50.762;4.470;2023-02-23T15:27:43;10.00;99.90
38973;DHT22;25333;50.762;4.470;2023-02-23T15:30:28;10.10;99.90
38973;DHT22;25333;50.762;4.470;2023-02-23T15:33:14;10.00;99.90
38973;DHT22;25333;50.762;4.470;2023-02-23T15:36:29;10.00;99.90
38973;DHT22;25333;50.762;4.470;2023-02-23T15:38:42;10.20;99.90
38973;DHT22;25333;50.762;4.470;2023-02-23T15:41:34;10.20;99.90
38973;DHT22;25333;50.762;4.470;2023-02-23T15:46:29;10.10;99.90
38973;DHT22;25333;50.762;4.470;2023-02-23T15:48:59;10.20;99.90
38973;DHT22;25333;50.762;4.470;2023-02-23T15:51:42;10.30;99.90
38973;DHT22;25333;50.762;4.470;2023-02-23T15:57:19;10.30;99.90
38973;DHT22;25333;50.762;4.470;2023-02-23T15:59:47;10.30;99.90
38973;DHT22;25333;50.762;4.470;2023-02-23T16:02:18;10.30;99.90
38973;DHT22;25333;50.762;4.470;2023-02-23T16:04:46;10.30;99.90
38973;DHT22;25333;50.762;4.470;2023-02-23T16:10:02;10.20;99.90
38973;DHT22;25333;50.762;4.470;2023-02-23T16:12:30;10.20;99.90
38973;DHT22;25333;50.762;4.470;2023-02-23T16:15:02;10.30;99.90
38973;DHT22;25333;50.762;4.470;2023-02-23T16:22:39;10.30;99.90
38973;DHT22;25333;50.762;4.470;2023-02-23T16:25:12;10.20;99.90
38973;DHT22;25333;50.762;4.470;2023-02-23T16:27:39;10.10;99.90
38973;DHT22;25333;50.762;4.470;2023-02-23T16:30:21;10.10;99.90
38973;DHT22;25333;50.762;4.470;2023-02-23T16:33:10;10.00;99.90
38973;DHT22;25333;50.762;4.470;2023-02-23T16:35:42;10.00;99.90
38973;DHT22;25333;50.762;4.470;2023-02-23T16:38:13;10.00;99.90
38973;DHT22;25333;50.762;4.470;2023-02-23T16:40:40;10.00;99.90
38973;DHT22;25333;50.762;4.470;2023-02-23T16:43:07;9.90;99.90
38973;DHT22;25333;50.762;4.470;2023-02-23T16:45:40;9.80;99.90
38973;DHT22;25333;50.762;4.470;2023-02-23T16:48:12;9.80;99.90
38973;DHT22;25333;50.762;4.470;2023-02-23T16:50:38;9.70;99.90
38973;DHT22;25333;50.762;4.470;2023-02-23T16:53:05;9.60;99.90
38973;DHT22;25333;50.762;4.470;2023-02-23T16:55:36;9.70;99.90
38973;DHT22;25333;50.762;4.470;2023-02-23T16:58:21;9.70;99.90
38973;DHT22;25333;50.762;4.470;2023-02-23T17:00:47;9.70;99.90
38973;DHT22;25333;50.762;4.470;2023-02-23T17:03:25;9.70;99.90
38973;DHT22;25333;50.762;4.470;2023-02-23T17:05:51;9.70;99.90
38973;DHT22;25333;50.762;4.470;2023-02-23T17:08:17;9.70;99.90
38973;DHT22;25333;50.762;4.470;2023-02-23T17:10:45;9.60;99.90
38973;DHT22;25333;50.762;4.470;2023-02-23T17:13:22;9.60;99.90
38973;DHT22;25333;50.762;4.470;2023-02-23T17:15:50;9.50;99.90
38973;DHT22;25333;50.762;4.470;2023-02-23T17:18:29;9.40;99.90
38973;DHT22;25333;50.762;4.470;2023-02-23T17:20:56;9.40;99.90
38973;DHT22;25333;50.762;4.470;2023-02-23T17:23:23;9.50;99.90
38973;DHT22;25333;50.762;4.470;2023-02-23T17:25:52;9.50;99.90
38973;DHT22;25333;50.762;4.470;2023-02-23T17:28:18;9.50;99.90
38973;DHT22;25333;50.762;4.470;2023-02-23T17:30:44;9.50;99.90
38973;DHT22;25333;50.762;4.470;2023-02-23T17:33:11;9.50;99.90
38973;DHT22;25333;50.762;4.470;2023-02-23T17:35:36;9.50;99.90
38973;DHT22;25333;50.762;4.470;2023-02-23T17:38:06;9.50;99.90
38973;DHT22;25333;50.762;4.470;2023-02-23T17:40:33;9.40;99.90
38973;DHT22;25333;50.762;4.470;2023-02-23T17:43:01;9.40;99.90
38973;DHT22;25333;50.762;4.470;2023-02-23T17:45:28;9.40;99.90
38973;DHT22;25333;50.762;4.470;2023-02-23T17:47:55;9.30;99.90
38973;DHT22;25333;50.762;4.470;2023-02-23T17:50:21;9.20;99.90
38973;DHT22;25333;50.762;4.470;2023-02-23T17:52:48;9.10;99.90
38973;DHT22;25333;50.762;4.470;2023-02-23T17:55:16;9.00;99.90
38973;DHT22;25333;50.762;4.470;2023-02-23T17:57:42;9.00;99.90
38973;DHT22;25333;50.762;4.470;2023-02-23T18:00:10;8.90;99.90
38973;DHT22;25333;50.762;4.470;2023-02-23T18:02:40;8.90;99.90
38973;DHT22;25333;50.762;4.470;2023-02-23T18:05:08;8.90;99.90
38973;DHT22;25333;50.762;4.470;2023-02-23T18:07:34;9.00;99.90
38973;DHT22;25333;50.762;4.470;2023-02-23T18:10:00;9.10;99.90
38973;DHT22;25333;50.762;4.470;2023-02-23T18:12:26;9.20;99.90
38973;DHT22;25333;50.762;4.470;2023-02-23T18:14:51;9.20;99.90
38973;DHT22;25333;50.762;4.470;2023-02-23T18:17:17;9.20;99.90
38973;DHT22;25333;50.762;4.470;2023-02-23T18:19:44;9.30;99.90
38973;DHT22;25333;50.762;4.470;2023-02-23T18:22:10;9.30;99.90
38973;DHT22;25333;50.762;4.470;2023-02-23T18:24:36;9.30;99.90
38973;DHT22;25333;50.762;4.470;2023-02-23T18:27:02;9.20;99.90
38973;DHT22;25333;50.762;4.470;2023-02-23T18:29:30;9.20;99.90
38973;DHT22;25333;50.762;4.470;2023-02-23T18:31:57;9.20;99.90
38973;DHT22;25333;50.762;4.470;2023-02-23T18:34:24;9.10;99.90
38973;DHT22;25333;50.762;4.470;2023-02-23T18:36:50;9.10;99.90
38973;DHT22;25333;50.762;4.470;2023-02-23T18:39:16;9.10;99.90
38973;DHT22;25333;50.762;4.470;2023-02-23T18:41:42;9.20;99.90
38973;DHT22;25333;50.762;4.470;2023-02-23T18:44:12;9.20;99.90